createdAt,value
2022-12-12T00:00:52.202Z,72.01
2022-12-12T00:01:52.193Z,72.77
2022-12-12T00:02:52.254Z,72.84
2022-12-12T00:03:52.347Z,72.11
2022-12-12T00:04:52.153Z,72.14
2022-12-12T00:05:52.138Z,72.77
2022-12-12T00:06:52.135Z,72.77
2022-12-12T00:07:52.184Z,72.66
2022-12-12T00:08:52.133Z,72.53
2022-12-12T00:09:52.111Z,72.22
2022-12-12T00:10:52.134Z,71.91
2022-12-12T00:11:52.092Z,72.01
2022-12-12T00:12:52.105Z,72.42
2022-12-12T00:13:52.056Z,72.01
2022-12-12T00:14:52.043Z,71.73
2022-12-12T00:15:52.112Z,72.56
2022-12-12T00:16:52.051Z,71.94
2022-12-12T00:17:52.024Z,72.69
2022-12-12T00:18:52.016Z,73.11
2022-12-12T00:19:52.018Z,73.11
2022-12-12T00:20:51.989Z,72.97
2022-12-12T00:21:51.979Z,73.32
2022-12-12T00:22:51.956Z,72.80
2022-12-12T00:23:51.977Z,73.11
2022-12-12T00:24:51.946Z,72.97
2022-12-12T00:25:51.947Z,73.32
2022-12-12T00:26:51.944Z,73.28
2022-12-12T00:27:51.907Z,73.28
2022-12-12T00:28:51.896Z,73.18
2022-12-12T00:29:51.902Z,73.49
2022-12-12T00:30:51.962Z,72.87
2022-12-12T00:31:51.893Z,72.87
2022-12-12T00:32:51.865Z,72.97
2022-12-12T00:33:51.848Z,73.28
2022-12-12T00:34:51.837Z,73.28
2022-12-12T00:35:51.853Z,72.97
2022-12-12T00:36:51.829Z,73.18
2022-12-12T00:37:51.799Z,72.87
2022-12-12T00:38:51.790Z,73.08
2022-12-12T00:39:51.787Z,73.39
2022-12-12T00:40:51.811Z,73.08
2022-12-12T00:41:51.759Z,73.18
2022-12-12T00:42:51.752Z,73.08
2022-12-12T00:43:51.738Z,73.08
2022-12-12T00:44:51.733Z,73.32
2022-12-12T00:45:51.723Z,72.97
2022-12-12T00:46:51.791Z,73.28
2022-12-12T00:47:51.709Z,72.90
2022-12-12T00:48:51.717Z,73.80
2022-12-12T00:49:51.676Z,73.32
2022-12-12T00:50:51.665Z,74.01
2022-12-12T00:51:51.652Z,73.91
2022-12-12T00:52:51.655Z,74.74
2022-12-12T00:53:51.640Z,74.77
2022-12-12T00:54:51.655Z,74.88
2022-12-12T00:55:51.614Z,73.70
2022-12-12T00:56:51.596Z,73.60
2022-12-12T00:57:51.620Z,73.70
2022-12-12T00:58:51.615Z,74.15
2022-12-12T00:59:51.578Z,73.91
2022-12-12T01:00:51.562Z,73.39
2022-12-12T01:01:51.577Z,73.39
2022-12-12T01:02:51.613Z,73.49
2022-12-12T01:03:51.570Z,73.49
2022-12-12T01:04:51.518Z,73.49
2022-12-12T01:05:51.502Z,73.39
2022-12-12T01:06:51.540Z,73.39
2022-12-12T01:07:51.523Z,73.49
2022-12-12T01:08:51.475Z,73.39
2022-12-12T01:09:51.466Z,73.28
2022-12-12T01:10:51.458Z,73.28
2022-12-12T01:11:51.438Z,73.28
2022-12-12T01:12:51.493Z,73.49
2022-12-12T01:13:51.424Z,73.18
2022-12-12T01:14:51.417Z,73.28
2022-12-12T01:15:51.430Z,73.39
2022-12-12T01:16:51.387Z,74.19
2022-12-12T01:17:51.378Z,73.77
2022-12-12T01:18:51.397Z,73.80
2022-12-12T01:19:51.385Z,73.98
2022-12-12T01:20:51.348Z,74.74
2022-12-12T01:21:51.337Z,74.08
2022-12-12T01:22:51.326Z,73.67
2022-12-12T01:23:51.355Z,73.60
2022-12-12T01:24:51.304Z,73.70
2022-12-12T01:25:51.292Z,73.36
2022-12-12T01:26:51.278Z,73.60
2022-12-12T01:27:51.273Z,73.67
2022-12-12T01:28:51.286Z,73.39
2022-12-12T01:29:51.262Z,74.63
2022-12-12T01:30:51.244Z,74.81
2022-12-12T01:31:51.235Z,74.84
2022-12-12T01:32:51.224Z,74.74
2022-12-12T01:33:51.253Z,74.84
2022-12-12T01:34:51.194Z,74.71
2022-12-12T01:35:51.203Z,74.01
2022-12-12T01:36:51.178Z,74.08
2022-12-12T01:37:51.184Z,74.19
2022-12-12T01:38:51.154Z,74.50
2022-12-12T01:39:51.172Z,73.77
2022-12-12T01:40:51.157Z,74.08
2022-12-12T01:41:51.140Z,74.71
2022-12-12T01:42:51.109Z,74.81
2022-12-12T01:43:51.101Z,73.88
2022-12-12T01:44:51.121Z,73.67
2022-12-12T01:45:51.106Z,73.67
2022-12-12T01:46:51.110Z,73.46
2022-12-12T01:47:51.133Z,73.57
2022-12-12T01:48:51.044Z,73.57
2022-12-12T01:49:51.043Z,73.36
2022-12-12T01:50:51.026Z,73.80
2022-12-12T01:51:51.068Z,73.88
2022-12-12T01:52:51.017Z,73.88
2022-12-12T01:53:50.996Z,73.98
2022-12-12T01:54:50.989Z,74.81
2022-12-12T01:55:50.979Z,74.84
2022-12-12T01:56:50.997Z,74.74
2022-12-12T01:57:50.973Z,74.50
2022-12-12T01:58:50.934Z,73.57
2022-12-12T01:59:50.921Z,73.67
2022-12-12T02:00:50.941Z,73.91
2022-12-12T02:01:50.959Z,74.71
2022-12-12T02:02:50.934Z,74.81
2022-12-12T02:03:50.895Z,74.81
2022-12-12T02:04:50.889Z,74.81
2022-12-12T02:05:50.863Z,74.50
2022-12-12T02:06:50.857Z,74.71
2022-12-12T02:07:50.942Z,74.71
2022-12-12T02:08:50.842Z,73.88
2022-12-12T02:09:50.831Z,73.67
2022-12-12T02:10:50.819Z,73.57
2022-12-12T02:11:50.804Z,73.43
2022-12-12T02:12:50.825Z,73.53
2022-12-12T02:13:50.807Z,73.43
2022-12-12T02:14:50.771Z,73.53
2022-12-12T02:15:50.807Z,73.25
2022-12-12T02:16:50.744Z,73.36
2022-12-12T02:17:50.740Z,73.25
2022-12-12T02:18:50.773Z,73.46
2022-12-12T02:19:50.719Z,73.67
2022-12-12T02:20:50.710Z,73.57
2022-12-12T02:21:50.698Z,73.74
2022-12-12T02:22:50.677Z,74.26
2022-12-12T02:23:50.688Z,74.36
2022-12-12T02:24:50.696Z,73.94
2022-12-12T02:25:50.662Z,73.94
2022-12-12T02:26:50.655Z,74.46
2022-12-12T02:27:50.637Z,74.05
2022-12-12T02:28:50.650Z,73.84
2022-12-12T02:29:50.648Z,73.88
2022-12-12T02:30:50.624Z,74.57
2022-12-12T02:31:50.625Z,74.57
2022-12-12T02:32:50.589Z,74.46
2022-12-12T02:33:50.587Z,74.15
2022-12-12T02:34:50.569Z,74.57
2022-12-12T02:35:50.586Z,74.57
2022-12-12T02:36:50.546Z,74.57
2022-12-12T02:37:50.522Z,74.57
2022-12-12T02:38:50.519Z,74.60
2022-12-12T02:39:50.514Z,74.05
2022-12-12T02:40:50.522Z,74.26
2022-12-12T02:41:50.488Z,74.05
2022-12-12T02:42:50.472Z,74.98
2022-12-12T02:43:50.462Z,74.67
2022-12-12T02:44:50.456Z,74.88
2022-12-12T02:45:50.624Z,74.50
2022-12-12T02:46:50.526Z,74.50
2022-12-12T02:47:50.423Z,74.67
2022-12-12T02:48:50.404Z,74.67
2022-12-12T02:49:50.397Z,74.26
2022-12-12T02:50:50.393Z,74.88
2022-12-12T02:51:50.421Z,75.09
2022-12-12T02:52:50.369Z,74.88
2022-12-12T02:53:50.382Z,75.29
2022-12-12T02:54:50.349Z,75.29
2022-12-12T02:55:50.344Z,75.12
2022-12-12T02:56:50.366Z,74.88
2022-12-12T02:57:50.322Z,75.40
2022-12-12T02:58:50.344Z,75.50
2022-12-12T02:59:50.289Z,74.77
2022-12-12T03:00:50.330Z,74.88
2022-12-12T03:01:50.308Z,74.57
2022-12-12T03:02:50.281Z,74.46
2022-12-12T03:03:50.516Z,74.88
2022-12-12T03:04:50.241Z,75.29
2022-12-12T03:05:50.317Z,74.88
2022-12-12T03:06:50.250Z,75.40
2022-12-12T03:07:50.304Z,75.19
2022-12-12T03:08:50.224Z,75.40
2022-12-12T03:09:50.203Z,75.19
2022-12-12T03:10:50.176Z,75.19
2022-12-12T03:11:50.359Z,75.29
2022-12-12T03:12:50.183Z,75.29
2022-12-12T03:13:50.150Z,75.19
2022-12-12T03:14:50.142Z,75.71
2022-12-12T03:15:50.326Z,75.81
2022-12-12T03:16:50.103Z,76.54
2022-12-12T03:17:57.219Z,75.50
2022-12-12T03:18:50.076Z,75.71
2022-12-12T03:19:50.073Z,75.46
2022-12-12T03:20:50.075Z,75.60
2022-12-12T03:21:50.058Z,75.57
2022-12-12T03:22:50.032Z,75.57
2022-12-12T03:23:50.056Z,75.67
2022-12-12T03:24:50.022Z,75.36
2022-12-12T03:25:50.003Z,75.36
2022-12-12T03:26:50.002Z,75.15
2022-12-12T03:27:50.001Z,75.15
2022-12-12T03:28:50.005Z,74.84
2022-12-12T03:29:49.967Z,75.15
2022-12-12T03:30:49.962Z,75.15
2022-12-12T03:31:50.011Z,75.67
2022-12-12T03:32:49.981Z,75.46
2022-12-12T03:33:49.914Z,75.46
2022-12-12T03:34:49.915Z,75.15
2022-12-12T03:35:49.896Z,75.26
2022-12-12T03:36:49.898Z,75.46
2022-12-12T03:37:49.877Z,75.15
2022-12-12T03:38:49.900Z,75.67
2022-12-12T03:39:49.941Z,75.67
2022-12-12T03:40:49.850Z,75.57
2022-12-12T03:41:49.834Z,75.57
2022-12-12T03:42:49.844Z,75.46
2022-12-12T03:43:49.839Z,75.67
2022-12-12T03:44:49.813Z,75.15
2022-12-12T03:45:49.879Z,75.57
2022-12-12T03:46:49.797Z,75.78
2022-12-12T03:47:49.768Z,75.46
2022-12-12T03:48:49.756Z,75.78
2022-12-12T03:49:50.266Z,76.09
2022-12-12T03:50:49.765Z,76.19
2022-12-12T03:51:49.733Z,75.98
2022-12-12T03:52:49.744Z,76.09
2022-12-12T03:53:49.712Z,76.40
2022-12-12T03:54:49.692Z,76.19
2022-12-12T03:55:49.694Z,76.19
2022-12-12T03:56:49.669Z,76.09
2022-12-12T03:57:49.694Z,76.29
2022-12-12T03:58:49.661Z,76.29
2022-12-12T03:59:49.661Z,76.19
2022-12-12T04:00:49.735Z,75.98
2022-12-12T04:01:49.782Z,76.26
2022-12-12T04:02:49.635Z,76.09
2022-12-12T04:03:49.600Z,76.09
2022-12-12T04:04:49.594Z,76.05
2022-12-12T04:05:49.578Z,76.26
2022-12-12T04:06:49.573Z,76.40
2022-12-12T04:07:49.728Z,75.43
2022-12-12T04:08:49.578Z,76.36
2022-12-12T04:09:49.542Z,76.26
2022-12-12T04:10:49.523Z,76.05
2022-12-12T04:11:49.548Z,76.40
2022-12-12T04:12:49.499Z,76.40
2022-12-12T04:13:49.494Z,75.57
2022-12-12T04:14:49.499Z,76.40
2022-12-12T04:15:49.497Z,76.40
2022-12-12T04:16:49.488Z,76.05
2022-12-12T04:17:49.482Z,76.29
2022-12-12T04:18:49.438Z,76.09
2022-12-12T04:19:49.466Z,76.09
2022-12-12T04:20:49.411Z,76.19
2022-12-12T04:21:49.414Z,76.50
2022-12-12T04:22:49.426Z,76.46
2022-12-12T04:23:49.411Z,76.26
2022-12-12T04:24:49.379Z,76.05
2022-12-12T04:25:49.382Z,76.26
2022-12-12T04:26:49.366Z,76.29
2022-12-12T04:27:49.341Z,76.36
2022-12-12T04:28:49.355Z,75.57
2022-12-12T04:29:49.341Z,76.50
2022-12-12T04:30:49.320Z,76.40
2022-12-12T04:31:49.406Z,76.26
2022-12-12T04:32:49.296Z,76.40
2022-12-12T04:33:49.286Z,76.26
2022-12-12T04:34:49.300Z,75.43
2022-12-12T04:35:49.271Z,75.53
2022-12-12T04:36:49.252Z,75.57
2022-12-12T04:37:49.281Z,74.91
2022-12-12T04:38:49.231Z,75.53
2022-12-12T04:39:49.248Z,75.43
2022-12-12T04:40:49.215Z,75.32
2022-12-12T04:41:49.198Z,75.12
2022-12-12T04:42:49.183Z,75.22
2022-12-12T04:43:49.172Z,74.91
2022-12-12T04:44:49.214Z,74.81
2022-12-12T04:45:49.223Z,75.22
2022-12-12T04:46:49.151Z,74.57
2022-12-12T04:47:49.178Z,74.81
2022-12-12T04:48:51.842Z,74.71
2022-12-12T04:49:49.108Z,74.81
2022-12-12T04:50:49.175Z,74.71
2022-12-12T04:51:49.085Z,74.77
2022-12-12T04:52:49.069Z,75.02
2022-12-12T04:53:49.071Z,75.12
2022-12-12T04:54:49.055Z,74.36
2022-12-12T04:55:49.053Z,74.98
2022-12-12T04:56:49.066Z,75.09
2022-12-12T04:57:49.030Z,74.15
2022-12-12T04:58:49.010Z,74.57
2022-12-12T04:59:49.012Z,74.67
2022-12-12T05:00:49.061Z,75.09
2022-12-12T05:01:53.209Z,74.81
2022-12-12T05:02:49.026Z,74.57
2022-12-12T05:03:48.988Z,74.57
2022-12-12T05:04:48.946Z,74.57
2022-12-12T05:05:48.944Z,74.40
2022-12-12T05:06:48.940Z,74.67
2022-12-12T05:07:49.023Z,74.77
2022-12-12T05:08:48.916Z,74.81
2022-12-12T05:09:48.898Z,74.60
2022-12-12T05:10:48.909Z,74.71
2022-12-12T05:11:48.911Z,75.12
2022-12-12T05:12:48.860Z,75.12
2022-12-12T05:13:48.876Z,75.22
2022-12-12T05:14:48.845Z,75.43
2022-12-12T05:15:48.827Z,75.63
2022-12-12T05:16:48.882Z,75.53
2022-12-12T05:17:48.838Z,75.12
2022-12-12T05:18:48.796Z,75.09
2022-12-12T05:19:48.806Z,74.57
2022-12-12T05:20:48.775Z,74.36
2022-12-12T05:21:48.774Z,74.67
2022-12-12T05:22:48.753Z,74.77
2022-12-12T05:23:48.779Z,74.77
2022-12-12T05:24:48.736Z,74.57
2022-12-12T05:25:48.730Z,74.67
2022-12-12T05:26:48.705Z,74.77
2022-12-12T05:27:48.724Z,74.60
2022-12-12T05:28:48.727Z,74.91
2022-12-12T05:29:48.676Z,74.91
2022-12-12T05:30:48.755Z,75.09
2022-12-12T05:31:48.661Z,74.98
2022-12-12T05:32:48.657Z,74.88
2022-12-12T05:33:48.685Z,74.15
2022-12-12T05:34:48.642Z,74.67
2022-12-12T05:35:48.661Z,74.36
2022-12-12T05:36:48.602Z,74.57
2022-12-12T05:37:52.008Z,73.84
2022-12-12T05:38:48.584Z,74.05
2022-12-12T05:39:48.606Z,73.94
2022-12-12T05:40:48.580Z,74.36
2022-12-12T05:41:48.554Z,74.46
2022-12-12T05:42:48.546Z,74.57
2022-12-12T05:43:48.526Z,74.57
2022-12-12T05:44:48.518Z,73.84
2022-12-12T05:45:48.585Z,73.43
2022-12-12T05:46:48.504Z,73.63
2022-12-12T05:47:48.511Z,73.32
2022-12-12T05:48:48.474Z,73.63
2022-12-12T05:49:48.476Z,73.63
2022-12-12T05:50:48.458Z,73.22
2022-12-12T05:51:48.470Z,73.63
2022-12-12T05:52:48.473Z,73.84
2022-12-12T05:53:48.422Z,73.63
2022-12-12T05:54:48.418Z,73.32
2022-12-12T05:55:48.410Z,73.11
2022-12-12T05:56:48.426Z,73.01
2022-12-12T05:57:48.389Z,73.11
2022-12-12T05:58:48.455Z,73.11
2022-12-12T05:59:48.355Z,73.32
2022-12-12T06:00:48.349Z,73.53
2022-12-12T06:01:48.426Z,73.53
2022-12-12T06:02:51.296Z,73.63
2022-12-12T06:03:48.382Z,74.26
2022-12-12T06:04:49.710Z,74.67
2022-12-12T06:05:48.300Z,74.36
2022-12-12T06:06:48.286Z,73.84
2022-12-12T06:07:48.434Z,73.53
2022-12-12T06:08:48.267Z,73.63
2022-12-12T06:09:48.352Z,73.63
2022-12-12T06:10:48.275Z,73.63
2022-12-12T06:11:48.260Z,73.11
2022-12-12T06:12:48.228Z,73.43
2022-12-12T06:13:48.211Z,73.63
2022-12-12T06:14:48.201Z,73.43
2022-12-12T06:15:48.221Z,73.94
2022-12-12T06:16:48.213Z,73.74
2022-12-12T06:17:48.168Z,73.53
2022-12-12T06:18:48.157Z,73.32
2022-12-12T06:19:48.147Z,73.53
2022-12-12T06:20:48.136Z,73.43
2022-12-12T06:21:48.160Z,73.53
2022-12-12T06:22:53.463Z,73.32
2022-12-12T06:23:49.126Z,73.32
2022-12-12T06:24:48.104Z,73.11
2022-12-12T06:25:48.112Z,73.11
2022-12-12T06:26:48.099Z,73.11
2022-12-12T06:27:48.111Z,73.32
2022-12-12T06:28:48.050Z,72.91
2022-12-12T06:29:48.052Z,72.71
2022-12-12T06:30:48.120Z,72.91
2022-12-12T06:31:48.012Z,72.91
2022-12-12T06:32:48.011Z,72.81
2022-12-12T06:33:52.949Z,72.91
2022-12-12T06:34:47.989Z,72.71
2022-12-12T06:35:47.977Z,72.91
2022-12-12T06:36:48.005Z,72.81
2022-12-12T06:37:47.973Z,73.01
2022-12-12T06:38:47.978Z,72.60
2022-12-12T06:39:47.958Z,72.81
2022-12-12T06:40:47.927Z,72.77
2022-12-12T06:41:47.949Z,72.81
2022-12-12T06:42:48.967Z,72.81
2022-12-12T06:43:47.911Z,73.08
2022-12-12T06:44:47.901Z,72.88
2022-12-12T06:45:47.872Z,73.11
2022-12-12T06:46:47.857Z,72.77
2022-12-12T06:47:47.871Z,72.56
2022-12-12T06:48:47.850Z,72.67
2022-12-12T06:49:47.833Z,73.08
2022-12-12T06:50:47.818Z,73.19
2022-12-12T06:51:47.811Z,72.71
2022-12-12T06:52:47.795Z,72.81
2022-12-12T06:53:47.826Z,72.67
2022-12-12T06:54:47.780Z,72.77
2022-12-12T06:55:47.847Z,72.88
2022-12-12T06:56:48.615Z,72.81
2022-12-12T06:57:47.748Z,72.81
2022-12-12T06:58:47.739Z,72.77
2022-12-12T06:59:47.752Z,72.98
2022-12-12T07:00:47.705Z,73.08
2022-12-12T07:01:47.819Z,72.91
2022-12-12T07:02:47.737Z,73.22
2022-12-12T07:03:47.673Z,73.22
2022-12-12T07:04:47.694Z,73.11
2022-12-12T07:05:47.660Z,72.71
2022-12-12T07:06:47.641Z,73.22
2022-12-12T07:07:47.668Z,73.11
2022-12-12T07:08:47.620Z,73.11
2022-12-12T07:09:47.619Z,72.60
2022-12-12T07:10:47.624Z,72.71
2022-12-12T07:11:47.623Z,72.71
2022-12-12T07:12:47.921Z,73.11
2022-12-12T07:13:47.603Z,73.32
2022-12-12T07:14:47.563Z,73.01
2022-12-12T07:15:47.613Z,72.71
2022-12-12T07:16:47.533Z,72.81
2022-12-12T07:17:47.554Z,73.11
2022-12-12T07:18:47.525Z,72.81
2022-12-12T07:19:47.506Z,72.81
2022-12-12T07:20:47.520Z,73.01
2022-12-12T07:21:48.258Z,72.81
2022-12-12T07:22:47.498Z,72.91
2022-12-12T07:23:47.468Z,72.60
2022-12-12T07:24:47.462Z,72.81
2022-12-12T07:25:47.468Z,72.71
2022-12-12T07:26:47.436Z,73.11
2022-12-12T07:27:47.438Z,72.81
2022-12-12T07:28:47.435Z,73.19
2022-12-12T07:29:47.404Z,72.81
2022-12-12T07:30:47.416Z,72.39
2022-12-12T07:31:47.399Z,72.39
2022-12-12T07:32:47.399Z,72.46
2022-12-12T07:33:47.368Z,72.36
2022-12-12T07:34:47.390Z,72.25
2022-12-12T07:35:47.335Z,72.05
2022-12-12T07:36:47.360Z,72.15
2022-12-12T07:37:47.320Z,71.73
2022-12-12T07:38:47.311Z,72.05
2022-12-12T07:39:47.306Z,71.84
2022-12-12T07:40:47.315Z,72.08
2022-12-12T07:41:47.271Z,72.08
2022-12-12T07:42:47.254Z,71.88
2022-12-12T07:43:47.358Z,71.98
2022-12-12T07:44:47.258Z,71.98
2022-12-12T07:45:47.240Z,71.84
2022-12-12T07:46:47.278Z,71.84
2022-12-12T07:47:47.244Z,72.05
2022-12-12T07:48:47.198Z,71.84
2022-12-12T07:49:47.194Z,71.88
2022-12-12T07:50:47.204Z,71.98
2022-12-12T07:51:49.184Z,71.88
2022-12-12T07:52:47.160Z,71.98
2022-12-12T07:53:47.176Z,71.88
2022-12-12T07:54:47.135Z,72.29
2022-12-12T07:55:47.121Z,71.67
2022-12-12T07:56:47.107Z,71.67
2022-12-12T07:57:47.096Z,72.08
2022-12-12T07:58:47.120Z,71.88
2022-12-12T07:59:47.130Z,71.77
2022-12-12T08:00:47.072Z,71.77
2022-12-12T08:01:47.118Z,71.56
2022-12-12T08:02:47.054Z,71.98
2022-12-12T08:03:47.055Z,71.88
2022-12-12T08:04:47.112Z,71.77
2022-12-12T08:05:47.013Z,71.84
2022-12-12T08:06:47.012Z,71.67
2022-12-12T08:07:47.054Z,71.77
2022-12-12T08:08:47.038Z,72.08
2022-12-12T08:09:46.980Z,71.77
2022-12-12T08:10:46.971Z,71.88
2022-12-12T08:11:47.086Z,72.39
2022-12-12T08:12:46.933Z,72.25
2022-12-12T08:13:46.938Z,71.67
2022-12-12T08:14:46.996Z,72.29
2022-12-12T08:15:46.989Z,71.43
2022-12-12T08:16:46.921Z,71.94
2022-12-12T08:17:46.880Z,72.08
2022-12-12T08:18:46.923Z,71.98
2022-12-12T08:19:46.877Z,71.88
2022-12-12T08:20:46.866Z,71.88
2022-12-12T08:21:46.861Z,71.88
2022-12-12T08:22:46.833Z,71.56
2022-12-12T08:23:46.828Z,71.88
2022-12-12T08:24:46.848Z,72.08
2022-12-12T08:25:46.832Z,71.98
2022-12-12T08:26:46.790Z,72.08
2022-12-12T08:27:46.824Z,72.19
2022-12-12T08:28:46.765Z,71.56
2022-12-12T08:29:46.757Z,71.98
2022-12-12T08:30:46.759Z,71.67
2022-12-12T08:31:47.066Z,72.08
2022-12-12T08:32:46.729Z,72.08
2022-12-12T08:33:46.719Z,72.08
2022-12-12T08:34:46.707Z,72.08
2022-12-12T08:35:46.702Z,71.56
2022-12-12T08:36:46.702Z,71.67
2022-12-12T08:37:46.674Z,71.25
2022-12-12T08:38:46.674Z,71.56
2022-12-12T08:39:50.331Z,71.25
2022-12-12T08:40:47.645Z,70.94
2022-12-12T08:41:46.643Z,70.94
2022-12-12T08:42:46.619Z,70.73
2022-12-12T08:43:46.652Z,70.73
2022-12-12T08:44:46.628Z,71.25
2022-12-12T08:45:46.585Z,70.94
2022-12-12T08:46:46.707Z,70.73
2022-12-12T08:47:46.594Z,70.94
2022-12-12T08:48:46.581Z,71.25
2022-12-12T08:49:46.557Z,72.19
2022-12-12T08:50:46.531Z,71.46
2022-12-12T08:51:46.526Z,70.73
2022-12-12T08:52:46.506Z,70.94
2022-12-12T08:53:46.500Z,70.94
2022-12-12T08:54:46.539Z,70.94
2022-12-12T08:55:46.485Z,70.63
2022-12-12T08:56:46.474Z,70.53
2022-12-12T08:57:47.621Z,70.32
2022-12-12T08:58:46.441Z,70.63
2022-12-12T08:59:46.435Z,70.42
2022-12-12T09:00:46.431Z,70.32
2022-12-12T09:01:46.540Z,70.63
2022-12-12T09:02:46.545Z,70.73
2022-12-12T09:03:46.417Z,72.77
2022-12-12T09:04:46.485Z,72.77
2022-12-12T09:05:46.394Z,73.19
2022-12-12T09:06:46.369Z,73.36
2022-12-12T09:07:46.412Z,73.05
2022-12-12T09:08:47.359Z,70.05
2022-12-12T09:09:46.357Z,69.40
2022-12-12T09:10:46.319Z,68.91
2022-12-12T09:11:46.312Z,69.32
2022-12-12T09:12:46.303Z,69.64
2022-12-12T09:13:46.283Z,69.74
2022-12-12T09:14:46.783Z,70.36
2022-12-12T09:15:46.397Z,69.53
2022-12-12T09:16:46.268Z,69.43
2022-12-12T09:17:46.247Z,69.53
2022-12-12T09:18:55.326Z,68.70
2022-12-12T09:19:46.232Z,68.77
2022-12-12T09:20:46.220Z,68.98
2022-12-12T09:21:46.236Z,67.85
2022-12-12T09:22:46.204Z,67.54
2022-12-12T09:23:46.189Z,67.54
2022-12-12T09:24:46.178Z,67.64
2022-12-12T09:25:46.153Z,67.88
2022-12-12T09:26:46.167Z,67.64
2022-12-12T09:27:46.139Z,67.74
2022-12-12T09:28:46.144Z,67.43
2022-12-12T09:29:46.131Z,67.43
2022-12-12T09:30:46.119Z,67.43
2022-12-12T09:31:46.205Z,67.54
2022-12-12T09:32:46.107Z,67.54
2022-12-12T09:33:46.083Z,67.74
2022-12-12T09:34:46.080Z,67.02
2022-12-12T09:35:46.068Z,67.22
2022-12-12T09:36:46.095Z,67.12
2022-12-12T09:37:46.103Z,66.50
2022-12-12T09:38:46.042Z,67.02
2022-12-12T09:39:46.027Z,66.39
2022-12-12T09:40:46.030Z,66.60
2022-12-12T09:41:46.004Z,66.47
2022-12-12T09:42:46.000Z,66.36
2022-12-12T09:43:46.024Z,66.06
2022-12-12T09:44:45.974Z,66.06
2022-12-12T09:45:46.000Z,66.26
2022-12-12T09:46:45.949Z,65.85
2022-12-12T09:47:45.953Z,65.95
2022-12-12T09:48:45.942Z,66.36
2022-12-12T09:49:46.004Z,65.95
2022-12-12T09:50:45.965Z,66.06
2022-12-12T09:51:45.914Z,66.54
2022-12-12T09:52:45.955Z,65.09
2022-12-12T09:53:45.900Z,65.61
2022-12-12T09:54:45.886Z,64.99
2022-12-12T09:55:45.865Z,65.06
2022-12-12T09:56:45.841Z,65.27
2022-12-12T09:57:45.825Z,65.17
2022-12-12T09:58:50.108Z,64.31
2022-12-12T09:59:45.831Z,64.42
2022-12-12T10:00:45.826Z,64.00
2022-12-12T10:01:45.811Z,64.00
2022-12-12T10:02:45.777Z,63.90
2022-12-12T10:03:45.766Z,63.87
2022-12-12T10:04:50.736Z,63.15
2022-12-12T10:05:45.753Z,63.46
2022-12-12T10:06:45.746Z,63.15
2022-12-12T10:07:45.731Z,62.84
2022-12-12T10:08:45.697Z,62.94
2022-12-12T10:09:45.697Z,62.53
2022-12-12T10:10:45.698Z,62.50
2022-12-12T10:11:45.669Z,62.71
2022-12-12T10:12:45.665Z,62.19
2022-12-12T10:13:45.656Z,61.98
2022-12-12T10:14:45.649Z,61.78
2022-12-12T10:15:45.637Z,61.44
2022-12-12T10:16:45.732Z,61.57
2022-12-12T10:17:45.610Z,61.57
2022-12-12T10:18:45.600Z,61.47
2022-12-12T10:19:45.592Z,62.08
2022-12-12T10:20:45.601Z,61.75
2022-12-12T10:21:45.559Z,61.57
2022-12-12T10:22:45.591Z,61.47
2022-12-12T10:23:45.553Z,61.33
2022-12-12T10:24:45.601Z,60.93
2022-12-12T10:25:45.546Z,60.89
2022-12-12T10:26:45.520Z,60.21
2022-12-12T10:27:45.520Z,60.64
2022-12-12T10:28:45.492Z,61.26
2022-12-12T10:29:45.502Z,61.19
2022-12-12T10:30:45.474Z,60.85
2022-12-12T10:31:45.568Z,60.95
2022-12-12T10:32:45.469Z,60.54
2022-12-12T10:33:45.435Z,60.75
2022-12-12T10:34:45.427Z,60.75
2022-12-12T10:35:45.438Z,60.21
2022-12-12T10:36:45.415Z,59.86
2022-12-12T10:37:45.397Z,60.07
2022-12-12T10:38:45.404Z,59.69
2022-12-12T10:39:45.383Z,59.89
2022-12-12T10:40:45.370Z,59.38
2022-12-12T10:41:45.369Z,59.89
2022-12-12T10:42:45.336Z,59.82
2022-12-12T10:43:45.340Z,60.33
2022-12-12T10:44:47.400Z,60.98
2022-12-12T10:45:45.345Z,60.75
2022-12-12T10:46:45.348Z,60.95
2022-12-12T10:47:45.321Z,61.05
2022-12-12T10:48:45.271Z,60.85
2022-12-12T10:49:45.270Z,60.85
2022-12-12T10:50:45.250Z,60.41
2022-12-12T10:51:45.245Z,60.33
2022-12-12T10:52:45.237Z,60.75
2022-12-12T10:53:45.391Z,60.33
2022-12-12T10:54:45.294Z,60.54
2022-12-12T10:55:45.203Z,60.33
2022-12-12T10:56:45.210Z,60.23
2022-12-12T10:57:45.182Z,60.75
2022-12-12T10:58:45.189Z,60.85
2022-12-12T10:59:45.158Z,60.77
2022-12-12T11:00:45.180Z,60.88
2022-12-12T11:02:08.868Z,61.29
2022-12-12T11:02:46.229Z,61.08
2022-12-12T11:03:45.195Z,61.32
2022-12-12T11:04:45.128Z,61.60
2022-12-12T11:05:45.081Z,61.60
2022-12-12T11:06:45.132Z,61.29
2022-12-12T11:07:45.070Z,61.29
2022-12-12T11:08:45.054Z,62.12
2022-12-12T11:09:45.062Z,61.63
2022-12-12T11:10:45.056Z,61.94
2022-12-12T11:11:45.020Z,61.91
2022-12-12T11:12:45.004Z,61.83
2022-12-12T11:13:45.002Z,61.40
2022-12-12T11:14:45.035Z,61.70
2022-12-12T11:15:44.974Z,62.15
2022-12-12T11:16:45.017Z,61.63
2022-12-12T11:17:44.986Z,61.63
2022-12-12T11:18:44.942Z,61.66
2022-12-12T11:19:44.943Z,61.76
2022-12-12T11:20:44.938Z,62.20
2022-12-12T11:21:44.924Z,61.99
2022-12-12T11:22:44.915Z,62.20
2022-12-12T11:23:44.890Z,62.44
2022-12-12T11:24:44.889Z,62.34
2022-12-12T11:25:44.958Z,62.75
2022-12-12T11:26:44.879Z,62.75
2022-12-12T11:27:44.845Z,62.95
2022-12-12T11:28:44.852Z,62.44
2022-12-12T11:29:44.840Z,62.65
2022-12-12T11:30:44.899Z,62.62
2022-12-12T11:31:45.005Z,62.20
2022-12-12T11:32:44.803Z,62.30
2022-12-12T11:33:44.785Z,62.20
2022-12-12T11:34:44.786Z,62.51
2022-12-12T11:35:47.746Z,62.10
2022-12-12T11:36:44.749Z,62.30
2022-12-12T11:37:44.736Z,62.41
2022-12-12T11:38:44.733Z,62.38
2022-12-12T11:39:44.725Z,61.97
2022-12-12T11:40:44.724Z,62.07
2022-12-12T11:41:44.714Z,61.35
2022-12-12T11:42:44.736Z,61.35
2022-12-12T11:43:44.682Z,61.55
2022-12-12T11:44:44.688Z,61.45
2022-12-12T11:45:44.761Z,61.35
2022-12-12T11:46:44.667Z,61.55
2022-12-12T11:47:44.642Z,60.83
2022-12-12T11:48:44.624Z,60.93
2022-12-12T11:49:44.609Z,61.04
2022-12-12T11:50:44.611Z,61.04
2022-12-12T11:51:44.618Z,61.14
2022-12-12T11:52:44.589Z,60.83
2022-12-12T11:53:44.580Z,61.04
2022-12-12T11:54:44.561Z,60.86
2022-12-12T11:55:44.549Z,61.17
2022-12-12T11:56:44.571Z,61.58
2022-12-12T11:57:44.534Z,61.51
2022-12-12T11:58:44.621Z,61.71
2022-12-12T11:59:44.530Z,62.57
2022-12-12T12:00:44.502Z,62.88
2022-12-12T12:01:44.516Z,62.88
2022-12-12T12:02:44.463Z,63.40
2022-12-12T12:03:44.538Z,63.81
2022-12-12T12:04:49.592Z,64.12
2022-12-12T12:05:44.468Z,63.95
2022-12-12T12:06:44.460Z,64.36
2022-12-12T12:07:44.424Z,64.25
2022-12-12T12:08:44.428Z,64.04
2022-12-12T12:09:44.394Z,63.76
2022-12-12T12:10:44.390Z,63.46
2022-12-12T12:11:44.396Z,63.25
2022-12-12T12:12:44.359Z,64.11
2022-12-12T12:13:44.414Z,63.79
2022-12-12T12:14:44.386Z,63.79
2022-12-12T12:15:44.349Z,64.00
2022-12-12T12:16:44.385Z,64.21
2022-12-12T12:17:44.321Z,64.03
2022-12-12T12:18:44.352Z,63.93
2022-12-12T12:19:44.344Z,64.37
2022-12-12T12:20:44.282Z,64.58
2022-12-12T12:21:44.281Z,65.00
2022-12-12T12:22:44.272Z,64.69
2022-12-12T12:23:48.857Z,64.69
2022-12-12T12:24:45.281Z,64.58
2022-12-12T12:25:44.250Z,64.17
2022-12-12T12:26:44.218Z,64.37
2022-12-12T12:27:44.224Z,64.37
2022-12-12T12:28:44.200Z,64.27
2022-12-12T12:29:44.187Z,64.37
2022-12-12T12:30:44.215Z,64.79
2022-12-12T12:31:44.219Z,64.79
2022-12-12T12:32:44.179Z,64.65
2022-12-12T12:33:44.159Z,64.58
2022-12-12T12:34:44.152Z,64.58
2022-12-12T12:35:44.230Z,64.17
2022-12-12T12:36:44.122Z,64.17
2022-12-12T12:37:44.131Z,63.93
2022-12-12T12:38:44.109Z,63.41
2022-12-12T12:39:44.093Z,63.72
2022-12-12T12:40:44.073Z,63.41
2022-12-12T12:41:44.087Z,64.34
2022-12-12T12:42:49.434Z,64.24
2022-12-12T12:43:45.047Z,64.14
2022-12-12T12:44:44.042Z,64.14
2022-12-12T12:45:44.036Z,63.93
2022-12-12T12:46:44.022Z,63.41
2022-12-12T12:47:44.037Z,63.20
2022-12-12T12:48:43.987Z,63.31
2022-12-12T12:49:43.984Z,62.89
2022-12-12T12:50:43.992Z,63.20
2022-12-12T12:51:49.934Z,63.51
2022-12-12T12:52:43.945Z,62.99